»·PEaware :: DFGCW KAPA-KCPR

DFGCW :: KAPA-KCPR

FLIGHT INFORMATION

Flight Status: Arrived
Operator: Unknown
More flights by this operator :: More flights under this callsign
Pilot: Klaus A. (15485)
Aircraft: PILATUS PC-12 EAGLE
(PC12)
More flights by this aircraft type
Origin: KAPA Centennial
United States
Destination: KCPR Natrona Co Intl
United States
More flights between these airports :: More routes between these airports
Route: +YELLO1 LAR V85 MBW
File this flight plan on PilotEdge
Remarks: Newbie Custom Weather
Altitude:
(Current/Filed)
22,000ft
Speed:
(Current/Filed)
230kts
Departed: 23-Apr-18 07:41 AM
Arrived: 23-Apr-18 08:48 AM
Distance/Time
Traveled:
213nm/1:07
Distance/Time
To Go:
Arrived

Flight Plot

Page will automatically refresh every two minutes.

Flight plan parsing failed; only flown route is shown


Map Options




Map Legend


Flown Route
Filed Route
Departure Airport
Arrival Airport
Navaid (VOR, NDB)
Fix

Horizontal Profiles

Position Reports

Time Latitude Longitude Heading Altitude Ground
Speed
23-Apr-18 07:06 39.568203 -104.848097 359 5888ft 0kts
23-Apr-18 07:07 39.568203 -104.848097 359 5888ft 0kts
23-Apr-18 07:08 39.568203 -104.848097 359 5888ft 0kts
23-Apr-18 07:09 39.568203 -104.848097 359 5888ft 0kts
23-Apr-18 07:10 39.568203 -104.848097 359 5888ft 0kts
23-Apr-18 07:11 39.568203 -104.848097 359 5888ft 0kts
23-Apr-18 07:12 39.568203 -104.848097 359 5888ft 0kts
23-Apr-18 07:13 39.568203 -104.848097 359 5888ft 0kts
23-Apr-18 07:14 39.568203 -104.848097 359 5888ft 0kts
23-Apr-18 07:15 39.568203 -104.848097 359 5888ft 0kts
23-Apr-18 07:16 39.568203 -104.848097 359 5888ft 0kts
23-Apr-18 07:17 39.568203 -104.848097 359 5888ft 0kts
23-Apr-18 07:18 39.568203 -104.848097 359 5888ft 0kts
23-Apr-18 07:19 39.568203 -104.848097 359 5888ft 0kts
23-Apr-18 07:20 39.568203 -104.848097 359 5888ft 0kts
23-Apr-18 07:21 39.568203 -104.848097 359 5888ft 0kts
23-Apr-18 07:22 39.568203 -104.848097 359 5888ft 0kts
23-Apr-18 07:23 39.568203 -104.848097 359 5888ft 0kts
23-Apr-18 07:24 39.568203 -104.848097 359 5888ft 0kts
23-Apr-18 07:25 39.568203 -104.848097 359 5888ft 0kts
23-Apr-18 07:26 39.568203 -104.848097 359 5888ft 0kts
23-Apr-18 07:27 39.568203 -104.848097 359 5888ft 0kts
23-Apr-18 07:28 39.568203 -104.848097 359 5888ft 0kts
23-Apr-18 07:29 39.568203 -104.848097 359 5888ft 0kts
23-Apr-18 07:30 39.568470 -104.848378 301 5888ft 5kts
23-Apr-18 07:31 39.570725 -104.849456 358 5888ft 12kts
23-Apr-18 07:32 39.573907 -104.849579 356 5888ft 14kts
23-Apr-18 07:33 39.578812 -104.849842 356 5888ft 18kts
23-Apr-18 07:34 39.583989 -104.850049 0 5888ft 11kts
23-Apr-18 07:35 39.584133 -104.850250 248 5888ft 0kts
23-Apr-18 07:36 39.584133 -104.850250 248 5888ft 0kts
23-Apr-18 07:37 39.584133 -104.850250 248 5888ft 0kts
23-Apr-18 07:38 39.584133 -104.850250 248 5888ft 0kts
23-Apr-18 07:39 39.584120 -104.850287 246 5888ft 2kts
23-Apr-18 07:40 39.580211 -104.851276 178 5888ft 84kts
23-Apr-18 07:41 39.543282 -104.849640 178 7360ft 162kts
23-Apr-18 07:42 39.495482 -104.847990 198 8958ft 184kts
23-Apr-18 07:43 39.492808 -104.899359 300 10543ft 179kts
23-Apr-18 07:44 39.517970 -104.954175 299 12359ft 175kts
23-Apr-18 07:45 39.542913 -105.008294 309 13950ft 179kts
23-Apr-18 07:46 39.593731 -105.010221 355 15427ft 188kts
23-Apr-18 07:47 39.647488 -105.011641 352 16661ft 196kts
23-Apr-18 07:48 39.702523 -105.014257 352 18031ft 201kts
23-Apr-18 07:49 39.758618 -105.017064 352 19255ft 206kts
23-Apr-18 07:50 39.816627 -105.019931 352 20358ft 211kts
23-Apr-18 07:51 39.875706 -105.022883 352 21359ft 215kts
23-Apr-18 07:52 39.936441 -105.025945 352 22014ft 230kts
23-Apr-18 07:53 40.004018 -105.029342 352 22046ft 254kts
23-Apr-18 07:54 40.075669 -105.032942 353 22040ft 261kts
23-Apr-18 07:55 40.147327 -105.036548 353 22042ft 262kts
23-Apr-18 07:56 40.220505 -105.040243 353 22004ft 263kts
23-Apr-18 07:57 40.293558 -105.043948 353 22009ft 264kts
23-Apr-18 07:58 40.367034 -105.047673 353 22007ft 265kts
23-Apr-18 07:59 40.440788 -105.051427 353 22002ft 266kts
23-Apr-18 08:00 40.514712 -105.055188 353 22003ft 267kts
23-Apr-18 08:01 40.588023 -105.058942 353 22158ft 265kts
23-Apr-18 08:02 40.662012 -105.062726 353 22155ft 267kts
23-Apr-18 08:03 40.736117 -105.066527 353 22154ft 267kts
23-Apr-18 08:04 40.798627 -105.106860 316 22152ft 257kts
23-Apr-18 08:05 40.853290 -105.167748 315 22156ft 257kts
23-Apr-18 08:06 40.907551 -105.229103 315 22180ft 257kts
23-Apr-18 08:07 40.961692 -105.290486 314 22181ft 257kts
23-Apr-18 08:08 41.015722 -105.351918 314 22181ft 256kts
23-Apr-18 08:09 41.069947 -105.413700 315 22157ft 257kts
23-Apr-18 08:10 41.122554 -105.473757 314 22151ft 256kts
23-Apr-18 08:11 41.176354 -105.535323 314 22153ft 256kts
23-Apr-18 08:12 41.230043 -105.596902 314 22151ft 256kts
23-Apr-18 08:13 41.283307 -105.658123 314 22157ft 257kts
23-Apr-18 08:14 41.337911 -105.719900 325 22130ft 264kts
23-Apr-18 08:15 41.405735 -105.758495 332 22155ft 266kts
23-Apr-18 08:16 41.473626 -105.796253 332 22157ft 265kts
23-Apr-18 08:17 41.541455 -105.834003 332 22157ft 264kts
23-Apr-18 08:18 41.609007 -105.871682 331 22156ft 264kts
23-Apr-18 08:19 41.673111 -105.907517 332 22156ft 264kts
23-Apr-18 08:20 41.740700 -105.945382 332 22156ft 264kts
23-Apr-18 08:21 41.808814 -105.983636 332 22120ft 266kts
23-Apr-18 08:22 41.878038 -106.018082 337 22005ft 268kts
23-Apr-18 08:23 41.946785 -106.047442 337 20666ft 252kts
23-Apr-18 08:24 42.012304 -106.075462 337 19363ft 245kts
23-Apr-18 08:25 42.077397 -106.103356 337 18082ft 247kts
23-Apr-18 08:26 42.142033 -106.131104 337 16790ft 245kts
23-Apr-18 08:27 42.206532 -106.158856 337 15487ft 244kts
23-Apr-18 08:28 42.268907 -106.185780 337 15023ft 229kts
23-Apr-18 08:29 42.331579 -106.212837 338 15025ft 241kts
23-Apr-18 08:30 42.395788 -106.240632 338 14997ft 243kts
23-Apr-18 08:31 42.456571 -106.266955 336 14981ft 204kts
23-Apr-18 08:32 42.512368 -106.280203 32 14064ft 226kts
23-Apr-18 08:33 42.564106 -106.231071 32 13009ft 229kts
23-Apr-18 08:34 42.618303 -106.183315 32 12016ft 237kts
23-Apr-18 08:35 42.672576 -106.135423 32 11337ft 234kts
23-Apr-18 08:36 42.724016 -106.089946 32 10986ft 201kts
23-Apr-18 08:37 42.769759 -106.049423 32 10998ft 196kts
23-Apr-18 08:38 42.815934 -106.064136 309 10193ft 199kts
23-Apr-18 08:39 42.854521 -106.116850 309 9156ft 205kts
23-Apr-18 08:40 42.894398 -106.171712 310 8074ft 202kts
23-Apr-18 08:41 42.911601 -106.232946 269 7785ft 159kts
23-Apr-18 08:42 42.910987 -106.287900 268 7758ft 129kts
23-Apr-18 08:43 42.910419 -106.332876 271 7009ft 112kts
23-Apr-18 08:44 42.909883 -106.376025 273 6408ft 111kts
23-Apr-18 08:45 42.909295 -106.416541 275 5843ft 106kts
23-Apr-18 08:46 42.908826 -106.456414 275 5354ft 92kts
23-Apr-18 08:47 42.908479 -106.469700 217 5353ft 9kts
23-Apr-18 08:48 42.907775 -106.469882 171 5352ft 7kts
23-Apr-18 08:49 42.903779 -106.464312 130 5353ft 26kts
23-Apr-18 08:50 42.902052 -106.460768 26 5353ft 8kts
23-Apr-18 08:51 42.903074 -106.458664 129 5353ft 0kts
23-Apr-18 08:52 42.903074 -106.458664 129 5353ft 0kts
23-Apr-18 08:53 42.903074 -106.458664 129 5353ft 0kts
23-Apr-18 08:54 42.903074 -106.458664 129 5353ft 0kts
23-Apr-18 08:55 42.903074 -106.458664 129 5353ft 0kts
23-Apr-18 08:56 42.903074 -106.458664 129 5353ft 0kts
23-Apr-18 08:57 42.903074 -106.458664 129 5353ft 0kts
23-Apr-18 08:58 42.903074 -106.458664 129 5353ft 0kts
23-Apr-18 08:59 42.903074 -106.458664 129 5353ft 0kts
23-Apr-18 09:00 42.903074 -106.458664 129 5353ft 0kts
23-Apr-18 09:01 42.903074 -106.458664 129 5353ft 0kts

Navigation Log

Ident Type
Flight plan parsing failed, navigation log unavailable